Time;durP1;ratioP1;P1;durP2;ratioP2;P2;SDS_P1;SDS_P2;PMS_P1;PMS_P2;Temp;Humidity;BMP_temperature;BMP_pressure;BME280_temperature;BME280_humidity;BME280_pressure;Samples;Min_cycle;Max_cycle;Signal;HPM_P1;HPM_P2
2024/01/22 00:00:58;;;;;;;4.15;1.98;;;;;;;;;;5045837;28;20262;-68
2024/01/22 00:03:23;;;;;;;3.30;1.60;;;;;;;;;;5043220;28;20145;-68
2024/01/22 00:05:48;;;;;;;4.60;1.73;;;;;;;;;;5045061;28;20043;-68
2024/01/22 00:08:13;;;;;;;3.00;1.42;;;;;;;;;;5044820;28;20274;-67
2024/01/22 00:10:39;;;;;;;5.65;2.00;;;;;;;;;;5045060;28;20032;-68
2024/01/22 00:13:04;;;;;;;7.50;1.98;;;;;;;;;;5047437;28;21001;-67
2024/01/22 00:15:29;;;;;;;2.95;1.45;;;;;;;;;;5057939;28;20453;-67
2024/01/22 00:17:54;;;;;;;6.75;2.28;;;;;;;;;;5064596;28;20539;-67
2024/01/22 00:20:21;;;;;;;5.28;1.95;;;;;;;;;;5066600;28;20070;-66
2024/01/22 00:22:46;;;;;;;3.85;1.63;;;;;;;;;;5056183;28;20251;-68
2024/01/22 00:25:11;;;;;;;3.57;1.63;;;;;;;;;;5054367;28;20032;-68
2024/01/22 00:27:36;;;;;;;2.63;1.47;;;;;;;;;;5023023;28;21147;-68
2024/01/22 00:30:02;;;;;;;5.15;2.03;;;;;;;;;;5044675;28;20314;-68
2024/01/22 00:32:27;;;;;;;3.90;1.90;;;;;;;;;;5050115;28;20853;-68
2024/01/22 00:34:52;;;;;;;3.28;1.73;;;;;;;;;;5050693;28;20866;-68
2024/01/22 00:37:17;;;;;;;2.87;1.70;;;;;;;;;;5045954;28;20879;-67
2024/01/22 00:39:43;;;;;;;3.30;1.70;;;;;;;;;;5033042;28;21164;-68
2024/01/22 00:42:08;;;;;;;5.30;1.43;;;;;;;;;;5062301;28;21259;-67
2024/01/22 00:44:33;;;;;;;3.60;1.63;;;;;;;;;;5059309;28;20815;-68
2024/01/22 00:46:59;;;;;;;3.45;1.65;;;;;;;;;;5063175;28;20703;-67
2024/01/22 00:49:24;;;;;;;3.78;1.60;;;;;;;;;;5064929;28;20082;-67
2024/01/22 00:51:49;;;;;;;5.55;1.70;;;;;;;;;;5051270;28;20016;-67
2024/01/22 00:54:14;;;;;;;5.55;1.55;;;;;;;;;;5044108;28;20078;-67
2024/01/22 00:56:40;;;;;;;3.80;1.60;;;;;;;;;;5044187;28;20131;-66
2024/01/22 00:59:05;;;;;;;3.90;1.70;;;;;;;;;;5043685;28;20902;-67
2024/01/22 01:01:31;;;;;;;4.07;1.60;;;;;;;;;;5045795;28;20031;-66
2024/01/22 01:03:56;;;;;;;3.72;1.73;;;;;;;;;;5044021;28;20872;-66
2024/01/22 01:06:22;;;;;;;3.13;1.43;;;;;;;;;;5046163;28;20024;-67
2024/01/22 01:08:47;;;;;;;3.47;1.55;;;;;;;;;;5042836;28;20278;-67
2024/01/22 01:11:12;;;;;;;2.80;1.50;;;;;;;;;;5047061;28;20856;-67
2024/01/22 01:13:37;;;;;;;3.25;1.50;;;;;;;;;;5048168;28;21192;-66
2024/01/22 01:16:03;;;;;;;5.47;1.50;;;;;;;;;;5046114;28;20024;-67
2024/01/22 01:18:28;;;;;;;2.83;1.45;;;;;;;;;;5045945;28;20282;-67
2024/01/22 01:20:53;;;;;;;2.40;1.10;;;;;;;;;;5046417;28;20599;-67
2024/01/22 01:23:18;;;;;;;2.80;1.23;;;;;;;;;;5059313;28;20750;-68
2024/01/22 01:25:44;;;;;;;4.50;1.33;;;;;;;;;;5064175;28;20821;-66
2024/01/22 01:28:09;;;;;;;4.70;1.38;;;;;;;;;;5057751;28;20810;-67
2024/01/22 01:30:34;;;;;;;2.35;0.98;;;;;;;;;;5057645;28;20019;-65
2024/01/22 01:32:59;;;;;;;2.70;1.00;;;;;;;;;;5054669;28;20035;-66
2024/01/22 01:35:25;;;;;;;2.28;1.02;;;;;;;;;;5048365;28;20270;-66
2024/01/22 01:37:51;;;;;;;2.65;0.80;;;;;;;;;;5061154;28;20047;-66
2024/01/22 01:40:16;;;;;;;2.67;1.10;;;;;;;;;;5049351;28;20027;-67
2024/01/22 01:42:43;;;;;;;2.60;1.13;;;;;;;;;;5047776;28;20807;-66
2024/01/22 01:45:10;;;;;;;4.50;1.13;;;;;;;;;;5055686;28;20105;-66
2024/01/22 01:47:35;;;;;;;3.35;1.00;;;;;;;;;;5041013;28;20032;-66
2024/01/22 01:50:00;;;;;;;5.35;1.30;;;;;;;;;;5045769;28;20936;-66
2024/01/22 01:52:26;;;;;;;3.25;1.25;;;;;;;;;;5043407;28;20038;-66
2024/01/22 01:54:51;;;;;;;2.80;1.30;;;;;;;;;;5042251;28;20901;-66
2024/01/22 01:57:17;;;;;;;5.07;1.30;;;;;;;;;;5043839;28;20117;-66
2024/01/22 01:59:43;;;;;;;4.82;1.48;;;;;;;;;;5044571;28;20030;-66
2024/01/22 02:02:09;;;;;;;2.03;1.00;;;;;;;;;;5026043;28;20032;-66
2024/01/22 02:04:34;;;;;;;2.85;0.93;;;;;;;;;;5035058;28;20030;-66
2024/01/22 02:07:00;;;;;;;1.88;0.90;;;;;;;;;;5044772;28;20789;-67
2024/01/22 02:09:44;;;;;;;2.78;1.40;;;;;;;;;;5043006;28;20024;-66
2024/01/22 02:12:09;;;;;;;1.85;0.95;;;;;;;;;;5042872;28;20052;-67
2024/01/22 02:14:34;;;;;;;2.25;0.95;;;;;;;;;;5044201;28;20980;-67
2024/01/22 02:17:00;;;;;;;2.53;1.10;;;;;;;;;;5043105;28;20051;-67
2024/01/22 02:19:25;;;;;;;2.90;1.23;;;;;;;;;;5043832;28;20516;-68
2024/01/22 02:21:53;;;;;;;2.28;1.17;;;;;;;;;;5043451;28;20273;-66
2024/01/22 02:24:18;;;;;;;2.42;1.25;;;;;;;;;;5038361;28;20851;-66
2024/01/22 02:26:43;;;;;;;3.15;1.35;;;;;;;;;;5045457;28;20063;-65
2024/01/22 02:29:08;;;;;;;2.10;1.07;;;;;;;;;;5052608;28;20928;-66
2024/01/22 02:31:33;;;;;;;3.47;1.37;;;;;;;;;;5059237;28;21344;-68
2024/01/22 02:33:59;;;;;;;2.13;1.00;;;;;;;;;;5061418;28;21065;-66
2024/01/22 02:36:30;;;;;;;3.03;1.27;;;;;;;;;;5066237;28;21241;-66
2024/01/22 02:38:55;;;;;;;2.50;1.30;;;;;;;;;;5057614;28;20348;-66
2024/01/22 02:41:20;;;;;;;2.80;1.30;;;;;;;;;;5045886;28;20045;-67
2024/01/22 02:43:46;;;;;;;2.55;1.15;;;;;;;;;;5043966;28;20028;-67
2024/01/22 02:46:11;;;;;;;3.67;1.25;;;;;;;;;;5047716;28;20493;-67
2024/01/22 02:48:36;;;;;;;3.03;1.20;;;;;;;;;;5048934;28;20020;-68
2024/01/22 02:51:06;;;;;;;2.77;1.20;;;;;;;;;;5044945;28;20865;-66
2024/01/22 02:53:32;;;;;;;2.13;1.08;;;;;;;;;;5039912;28;20298;-68
2024/01/22 02:55:57;;;;;;;2.20;0.90;;;;;;;;;;5051390;28;20854;-65
2024/01/22 02:58:22;;;;;;;1.90;0.70;;;;;;;;;;5049495;28;21208;-65
2024/01/22 03:00:47;;;;;;;2.90;1.10;;;;;;;;;;5040363;28;20074;-67
2024/01/22 03:03:13;;;;;;;3.53;0.90;;;;;;;;;;5043199;28;20280;-67
2024/01/22 03:05:38;;;;;;;3.17;1.10;;;;;;;;;;5047759;28;20891;-66
2024/01/22 03:08:03;;;;;;;1.98;0.80;;;;;;;;;;5034352;28;21056;-73
2024/01/22 03:10:29;;;;;;;3.38;0.95;;;;;;;;;;5045998;28;20142;-67
2024/01/22 03:12:54;;;;;;;2.83;0.97;;;;;;;;;;5046362;28;20931;-68
2024/01/22 03:15:19;;;;;;;5.57;0.80;;;;;;;;;;5046971;28;21242;-68
2024/01/22 03:17:44;;;;;;;1.77;0.80;;;;;;;;;;5046231;28;21157;-68
2024/01/22 03:20:10;;;;;;;4.13;1.07;;;;;;;;;;5046904;28;21043;-67
2024/01/22 03:22:35;;;;;;;2.72;0.98;;;;;;;;;;5063198;28;20977;-68
2024/01/22 03:25:00;;;;;;;2.25;0.90;;;;;;;;;;5062846;28;20097;-68
2024/01/22 03:27:25;;;;;;;1.70;0.63;;;;;;;;;;5060193;28;20039;-68
2024/01/22 03:29:51;;;;;;;1.90;0.80;;;;;;;;;;5065103;28;20034;-67
2024/01/22 03:32:16;;;;;;;1.63;0.67;;;;;;;;;;5047165;28;20127;-67
2024/01/22 03:34:41;;;;;;;2.25;0.70;;;;;;;;;;5047055;28;20278;-67
2024/01/22 03:37:06;;;;;;;1.92;0.75;;;;;;;;;;5044974;28;20040;-67
2024/01/22 03:39:32;;;;;;;1.98;0.75;;;;;;;;;;5046915;28;20028;-68
2024/01/22 03:41:57;;;;;;;3.07;0.80;;;;;;;;;;5065012;28;20131;-68
2024/01/22 03:44:22;;;;;;;3.63;0.77;;;;;;;;;;5065421;28;20273;-67
2024/01/22 03:46:47;;;;;;;2.17;0.65;;;;;;;;;;5051533;28;20078;-70
2024/01/22 03:49:13;;;;;;;2.37;0.80;;;;;;;;;;5044219;28;20495;-67
2024/01/22 03:51:38;;;;;;;2.93;1.00;;;;;;;;;;5045704;28;21092;-67
2024/01/22 03:54:03;;;;;;;2.50;1.00;;;;;;;;;;5045121;28;21220;-68
2024/01/22 03:56:28;;;;;;;3.70;1.00;;;;;;;;;;5044941;28;21205;-67
2024/01/22 03:58:54;;;;;;;2.43;1.00;;;;;;;;;;5043870;28;20028;-67
2024/01/22 04:01:21;;;;;;;3.97;1.10;;;;;;;;;;5062956;28;20293;-65
2024/01/22 04:03:46;;;;;;;4.03;0.80;;;;;;;;;;5066503;28;20048;-67
2024/01/22 04:06:12;;;;;;;2.22;0.80;;;;;;;;;;5065045;28;21346;-66
2024/01/22 04:08:37;;;;;;;2.47;0.90;;;;;;;;;;5061388;28;20027;-67
2024/01/22 04:11:02;;;;;;;2.70;0.63;;;;;;;;;;5044117;28;20028;-67
2024/01/22 04:13:27;;;;;;;2.42;0.90;;;;;;;;;;5045883;28;20397;-68
2024/01/22 04:15:54;;;;;;;2.87;0.87;;;;;;;;;;5065402;28;20477;-68
2024/01/22 04:18:19;;;;;;;2.22;0.80;;;;;;;;;;5066043;28;21199;-69
2024/01/22 04:20:44;;;;;;;2.35;0.73;;;;;;;;;;5065508;28;20024;-66
2024/01/22 04:23:09;;;;;;;3.70;0.80;;;;;;;;;;5066948;28;20030;-68
2024/01/22 04:25:35;;;;;;;2.72;0.60;;;;;;;;;;5063390;28;20036;-68
2024/01/22 04:28:00;;;;;;;3.77;0.90;;;;;;;;;;5066113;28;20034;-68
2024/01/22 04:30:25;;;;;;;2.27;0.83;;;;;;;;;;5053163;28;21327;-66
2024/01/22 04:32:50;;;;;;;1.92;1.00;;;;;;;;;;5052229;28;20353;-66
2024/01/22 04:35:16;;;;;;;1.58;0.75;;;;;;;;;;5061206;28;20035;-68
2024/01/22 04:37:41;;;;;;;1.45;0.60;;;;;;;;;;5062401;28;20032;-67
2024/01/22 04:40:13;;;;;;;2.42;0.80;;;;;;;;;;5061440;28;20213;-67
2024/01/22 04:42:42;;;;;;;2.45;1.00;;;;;;;;;;5051510;28;20020;-69
2024/01/22 04:45:08;;;;;;;2.17;0.70;;;;;;;;;;5048424;28;20553;-70
2024/01/22 04:47:33;;;;;;;2.45;0.88;;;;;;;;;;5056887;28;20036;-71
2024/01/22 04:49:58;;;;;;;1.60;0.70;;;;;;;;;;5057200;28;20075;-69
2024/01/22 04:52:23;;;;;;;2.00;0.80;;;;;;;;;;5054142;28;20554;-70
2024/01/22 04:54:49;;;;;;;1.98;0.80;;;;;;;;;;5066365;28;20833;-66
2024/01/22 04:57:14;;;;;;;2.42;0.95;;;;;;;;;;5056772;28;20020;-68
2024/01/22 04:59:39;;;;;;;1.67;0.80;;;;;;;;;;5046878;28;20024;-68
2024/01/22 05:02:04;;;;;;;2.15;0.77;;;;;;;;;;5044827;28;20277;-68
2024/01/22 05:04:30;;;;;;;2.87;0.90;;;;;;;;;;5045827;28;20051;-68
2024/01/22 05:06:55;;;;;;;2.78;0.68;;;;;;;;;;5046510;28;20290;-67
2024/01/22 05:09:20;;;;;;;2.40;0.98;;;;;;;;;;5046137;28;20122;-67
2024/01/22 05:11:46;;;;;;;3.25;0.80;;;;;;;;;;5039365;28;21082;-68
2024/01/22 05:14:11;;;;;;;1.40;0.63;;;;;;;;;;5047786;28;20921;-67
2024/01/22 05:16:36;;;;;;;1.83;0.60;;;;;;;;;;5045102;28;20122;-68
2024/01/22 05:19:02;;;;;;;1.42;0.50;;;;;;;;;;5045019;28;20335;-68
2024/01/22 05:21:27;;;;;;;1.27;0.50;;;;;;;;;;5044630;28;20046;-67
2024/01/22 05:23:52;;;;;;;2.13;0.60;;;;;;;;;;5043295;28;20948;-67
2024/01/22 05:26:18;;;;;;;2.42;0.60;;;;;;;;;;5045437;28;21116;-68
2024/01/22 05:28:43;;;;;;;0.73;0.30;;;;;;;;;;5043798;28;20123;-68
2024/01/22 05:31:08;;;;;;;1.77;0.50;;;;;;;;;;5042944;28;20023;-67
2024/01/22 05:33:33;;;;;;;1.75;0.50;;;;;;;;;;5045012;28;20038;-69
2024/01/22 05:35:59;;;;;;;0.80;0.40;;;;;;;;;;5043737;28;20024;-65
2024/01/22 05:38:24;;;;;;;1.75;0.60;;;;;;;;;;5043931;28;20016;-66
2024/01/22 05:40:50;;;;;;;1.58;0.50;;;;;;;;;;5037479;28;20134;-67
2024/01/22 05:43:15;;;;;;;1.02;0.40;;;;;;;;;;5044248;28;20040;-67
2024/01/22 05:45:40;;;;;;;0.95;0.38;;;;;;;;;;5042438;28;20134;-67
2024/01/22 05:48:06;;;;;;;1.25;0.43;;;;;;;;;;5044607;28;20152;-67
2024/01/22 05:50:32;;;;;;;0.80;0.30;;;;;;;;;;5045531;28;20266;-67
2024/01/22 05:52:57;;;;;;;3.60;0.65;;;;;;;;;;5060472;28;20954;-66
2024/01/22 05:55:22;;;;;;;1.13;0.50;;;;;;;;;;5049013;28;20031;-67
2024/01/22 05:57:48;;;;;;;1.83;0.60;;;;;;;;;;5044835;28;20016;-67
2024/01/22 06:00:13;;;;;;;0.77;0.30;;;;;;;;;;5044585;28;20037;-67
2024/01/22 06:02:39;;;;;;;1.90;0.40;;;;;;;;;;5033628;28;20059;-67
2024/01/22 06:05:05;;;;;;;1.02;0.30;;;;;;;;;;5045117;28;20024;-67
2024/01/22 06:07:30;;;;;;;1.10;0.40;;;;;;;;;;5045947;28;20043;-68
2024/01/22 06:09:55;;;;;;;0.85;0.40;;;;;;;;;;5066874;28;20504;-67
2024/01/22 06:12:20;;;;;;;1.13;0.52;;;;;;;;;;5065540;28;20024;-68
2024/01/22 06:14:46;;;;;;;1.70;0.40;;;;;;;;;;5057105;28;20028;-66
2024/01/22 06:17:11;;;;;;;2.67;0.60;;;;;;;;;;5043215;28;20947;-68
2024/01/22 06:19:36;;;;;;;0.70;0.20;;;;;;;;;;5043332;28;21023;-68
2024/01/22 06:22:01;;;;;;;1.38;0.47;;;;;;;;;;5043672;28;20514;-67
2024/01/22 06:24:27;;;;;;;1.80;0.50;;;;;;;;;;5043614;28;20080;-68
2024/01/22 06:26:52;;;;;;;2.25;0.60;;;;;;;;;;5043990;28;20034;-67
2024/01/22 06:29:18;;;;;;;1.38;0.40;;;;;;;;;;5044275;28;20034;-67
2024/01/22 06:31:43;;;;;;;1.30;0.40;;;;;;;;;;5045049;28;20059;-67
2024/01/22 06:34:08;;;;;;;6.28;0.80;;;;;;;;;;5053034;28;20028;-66
2024/01/22 06:36:34;;;;;;;1.38;0.57;;;;;;;;;;5047581;28;20061;-67
2024/01/22 06:39:00;;;;;;;1.80;0.65;;;;;;;;;;5045732;28;20427;-69
2024/01/22 06:41:25;;;;;;;1.95;0.70;;;;;;;;;;5044392;28;20012;-67
2024/01/22 06:43:50;;;;;;;1.33;0.50;;;;;;;;;;5087687;28;20069;-68
2024/01/22 06:46:15;;;;;;;2.47;0.60;;;;;;;;;;5089300;28;20413;-68
2024/01/22 06:48:41;;;;;;;1.20;0.50;;;;;;;;;;5088966;28;20039;-66
2024/01/22 06:51:08;;;;;;;1.33;0.50;;;;;;;;;;5088941;28;20482;-66
2024/01/22 06:53:33;;;;;;;3.33;0.55;;;;;;;;;;5088537;28;20278;-65
2024/01/22 06:55:59;;;;;;;4.18;1.60;;;;;;;;;;5087938;28;20024;-67
2024/01/22 06:58:24;;;;;;;3.90;0.63;;;;;;;;;;5087642;28;20054;-66
2024/01/22 07:00:51;;;;;;;2.53;0.80;;;;;;;;;;5069014;28;20023;-66
2024/01/22 07:03:16;;;;;;;1.80;0.52;;;;;;;;;;5042937;28;20093;-67
2024/01/22 07:05:41;;;;;;;1.70;0.70;;;;;;;;;;5041302;28;20042;-67
2024/01/22 07:08:07;;;;;;;3.75;0.88;;;;;;;;;;5042392;28;20395;-67
2024/01/22 07:10:32;;;;;;;3.07;1.00;;;;;;;;;;5042597;28;20024;-67
2024/01/22 07:12:58;;;;;;;3.13;0.70;;;;;;;;;;5043710;28;21251;-67
2024/01/22 07:15:23;;;;;;;2.22;0.70;;;;;;;;;;5041308;28;20815;-67
2024/01/22 07:17:50;;;;;;;1.95;0.57;;;;;;;;;;5042499;28;20076;-68
2024/01/22 07:20:15;;;;;;;1.55;0.70;;;;;;;;;;5042770;28;20028;-67
2024/01/22 07:22:41;;;;;;;1.55;0.50;;;;;;;;;;5042686;28;20035;-68
2024/01/22 07:25:07;;;;;;;3.38;0.82;;;;;;;;;;5044230;28;20035;-67
2024/01/22 07:27:32;;;;;;;1.73;0.65;;;;;;;;;;5045767;28;20016;-67
2024/01/22 07:29:57;;;;;;;1.50;0.40;;;;;;;;;;5047874;28;20028;-67
2024/01/22 07:32:23;;;;;;;2.22;0.60;;;;;;;;;;5051639;28;20290;-67
2024/01/22 07:34:48;;;;;;;4.63;0.90;;;;;;;;;;5042975;28;20104;-67
2024/01/22 07:37:13;;;;;;;2.30;0.85;;;;;;;;;;5043249;28;20294;-67
2024/01/22 07:39:38;;;;;;;5.10;0.70;;;;;;;;;;5046515;28;20062;-67
2024/01/22 07:42:04;;;;;;;2.08;0.80;;;;;;;;;;5046325;28;20094;-67
2024/01/22 07:44:29;;;;;;;1.55;0.70;;;;;;;;;;5044293;28;20040;-67
2024/01/22 07:46:55;;;;;;;1.90;0.80;;;;;;;;;;5045556;28;20027;-67
2024/01/22 07:49:24;;;;;;;3.35;0.90;;;;;;;;;;5046640;28;20282;-67
2024/01/22 07:51:49;;;;;;;1.70;0.70;;;;;;;;;;5047574;28;20447;-67
2024/01/22 07:54:14;;;;;;;4.40;0.80;;;;;;;;;;5046603;28;20039;-67
2024/01/22 07:56:40;;;;;;;2.42;1.10;;;;;;;;;;5046850;28;20096;-67
2024/01/22 07:59:05;;;;;;;2.05;0.73;;;;;;;;;;5043693;28;20039;-67
2024/01/22 08:01:30;;;;;;;2.90;1.15;;;;;;;;;;5047041;28;20834;-67
2024/01/22 08:03:55;;;;;;;1.90;0.70;;;;;;;;;;5036208;28;20072;-67
2024/01/22 08:06:21;;;;;;;1.92;0.68;;;;;;;;;;5045002;28;20277;-67
2024/01/22 08:08:46;;;;;;;1.90;0.70;;;;;;;;;;5048296;28;20055;-67
2024/01/22 08:11:12;;;;;;;2.07;0.67;;;;;;;;;;5045756;28;20421;-66
2024/01/22 08:13:38;;;;;;;2.33;0.60;;;;;;;;;;5047509;28;20277;-68
2024/01/22 08:16:04;;;;;;;1.85;0.80;;;;;;;;;;5046471;28;20083;-67
2024/01/22 08:18:29;;;;;;;3.58;0.60;;;;;;;;;;5026940;28;20031;-67
2024/01/22 08:20:54;;;;;;;3.60;0.73;;;;;;;;;;5047532;28;20027;-67
2024/01/22 08:23:19;;;;;;;5.77;0.70;;;;;;;;;;5047866;28;20278;-67
2024/01/22 08:25:45;;;;;;;4.33;0.80;;;;;;;;;;5029290;28;20401;-67
2024/01/22 08:28:10;;;;;;;3.22;0.98;;;;;;;;;;5042763;28;20289;-67
2024/01/22 08:30:35;;;;;;;1.15;0.43;;;;;;;;;;5043864;28;20051;-67
2024/01/22 08:33:00;;;;;;;3.00;0.90;;;;;;;;;;5043980;28;20032;-67
2024/01/22 08:35:26;;;;;;;1.52;0.50;;;;;;;;;;5039858;28;21288;-67
2024/01/22 08:37:55;;;;;;;2.75;0.60;;;;;;;;;;5049557;28;20016;-66
2024/01/22 08:40:21;;;;;;;3.15;0.75;;;;;;;;;;5046894;28;20279;-67
2024/01/22 08:42:57;;;;;;;2.78;0.70;;;;;;;;;;5049126;28;20028;-67
2024/01/22 08:45:22;;;;;;;6.38;0.85;;;;;;;;;;5047857;28;20020;-67
2024/01/22 08:47:50;;;;;;;3.10;0.90;;;;;;;;;;5048464;28;20074;-69
2024/01/22 08:50:21;;;;;;;3.53;1.00;;;;;;;;;;5027176;28;20032;-67
2024/01/22 08:52:46;;;;;;;2.20;0.85;;;;;;;;;;5046346;28;20127;-66
2024/01/22 08:55:11;;;;;;;2.97;0.90;;;;;;;;;;5048478;28;20820;-67
2024/01/22 08:57:37;;;;;;;7.43;1.27;;;;;;;;;;5050253;28;20050;-65
2024/01/22 09:00:10;;;;;;;3.00;1.15;;;;;;;;;;5051081;28;20278;-67
2024/01/22 09:02:36;;;;;;;3.67;1.00;;;;;;;;;;5049322;28;20027;-67
2024/01/22 09:05:03;;;;;;;4.97;1.00;;;;;;;;;;5047041;28;20028;-67
2024/01/22 09:07:28;;;;;;;3.30;0.88;;;;;;;;;;5044817;28;20073;-67
2024/01/22 09:09:53;;;;;;;4.85;1.20;;;;;;;;;;5046908;28;20024;-66
2024/01/22 09:12:18;;;;;;;4.93;1.33;;;;;;;;;;5048935;28;20052;-67
2024/01/22 09:14:44;;;;;;;3.97;1.10;;;;;;;;;;5049429;28;20863;-67
2024/01/22 09:17:12;;;;;;;4.80;0.80;;;;;;;;;;5050407;28;21131;-67
2024/01/22 09:19:37;;;;;;;5.40;1.17;;;;;;;;;;5048978;28;20027;-67
2024/01/22 09:22:02;;;;;;;4.50;1.08;;;;;;;;;;5048636;28;20894;-67
2024/01/22 09:24:27;;;;;;;2.10;0.90;;;;;;;;;;5028215;28;20055;-67
2024/01/22 09:26:53;;;;;;;4.17;1.27;;;;;;;;;;5045639;28;20032;-67
2024/01/22 09:29:18;;;;;;;5.03;1.53;;;;;;;;;;5046007;28;20312;-67
2024/01/22 09:31:43;;;;;;;4.55;1.10;;;;;;;;;;5050258;28;20270;-67
2024/01/22 09:34:09;;;;;;;5.90;1.00;;;;;;;;;;5047246;28;20884;-66
2024/01/22 09:36:34;;;;;;;5.45;1.35;;;;;;;;;;5044080;28;20628;-66
2024/01/22 09:39:00;;;;;;;5.20;1.30;;;;;;;;;;5045959;28;20185;-66
2024/01/22 09:41:25;;;;;;;6.13;1.27;;;;;;;;;;5045967;28;21250;-66
2024/01/22 09:43:51;;;;;;;3.05;1.10;;;;;;;;;;5044429;28;21135;-67
2024/01/22 09:46:17;;;;;;;4.40;0.98;;;;;;;;;;5043946;28;20036;-67
2024/01/22 09:48:42;;;;;;;4.63;1.33;;;;;;;;;;5045354;28;20126;-66
2024/01/22 09:51:07;;;;;;;1.75;0.60;;;;;;;;;;5043597;28;20941;-67
2024/01/22 09:53:35;;;;;;;3.20;0.70;;;;;;;;;;5044889;28;20024;-66
2024/01/22 09:56:03;;;;;;;6.72;1.45;;;;;;;;;;5044249;28;20261;-66
2024/01/22 09:58:30;;;;;;;2.35;0.68;;;;;;;;;;5035990;28;20013;-67
2024/01/22 10:00:55;;;;;;;4.95;0.98;;;;;;;;;;5038437;28;20081;-68
2024/01/22 10:03:21;;;;;;;6.10;1.20;;;;;;;;;;5044401;28;20928;-67
2024/01/22 10:05:48;;;;;;;3.85;0.88;;;;;;;;;;5045190;28;20077;-67
2024/01/22 10:08:13;;;;;;;3.50;1.23;;;;;;;;;;5044510;28;20907;-67
2024/01/22 10:10:39;;;;;;;4.32;1.00;;;;;;;;;;5043786;28;20063;-67
2024/01/22 10:13:07;;;;;;;5.10;1.05;;;;;;;;;;5032164;28;20062;-68
2024/01/22 10:15:33;;;;;;;3.50;0.98;;;;;;;;;;5041975;28;20971;-68
2024/01/22 10:18:07;;;;;;;5.15;1.20;;;;;;;;;;5041446;28;20095;-68
2024/01/22 10:20:32;;;;;;;3.75;0.93;;;;;;;;;;5043368;28;20085;-67
2024/01/22 10:23:01;;;;;;;5.10;1.10;;;;;;;;;;5043968;28;20012;-67
2024/01/22 10:25:26;;;;;;;3.80;0.77;;;;;;;;;;5043411;28;20854;-68
2024/01/22 10:28:06;;;;;;;5.97;1.13;;;;;;;;;;5023085;28;20071;-67
2024/01/22 10:30:31;;;;;;;4.35;0.70;;;;;;;;;;5042207;28;20131;-67
2024/01/22 10:33:07;;;;;;;1.90;0.60;;;;;;;;;;5042182;28;20027;-68
2024/01/22 10:35:33;;;;;;;2.67;1.02;;;;;;;;;;5044632;28;20106;-67
2024/01/22 10:38:25;;;;;;;3.27;0.90;;;;;;;;;;5043036;28;20024;-67
2024/01/22 10:40:51;;;;;;;3.05;0.77;;;;;;;;;;5034578;28;20278;-68
2024/01/22 10:43:24;;;;;;;2.97;0.70;;;;;;;;;;5043688;28;20034;-67
2024/01/22 10:45:49;;;;;;;2.85;1.00;;;;;;;;;;5045003;28;20024;-67
2024/01/22 10:48:19;;;;;;;3.45;1.08;;;;;;;;;;5042173;28;20067;-67
2024/01/22 10:50:44;;;;;;;3.47;0.98;;;;;;;;;;5043379;28;20034;-67
2024/01/22 10:53:11;;;;;;;5.85;1.33;;;;;;;;;;5044299;28;20024;-68
2024/01/22 10:55:38;;;;;;;8.95;0.93;;;;;;;;;;5032912;28;20024;-68
2024/01/22 10:58:08;;;;;;;2.25;0.77;;;;;;;;;;5038594;28;20020;-68
2024/01/22 11:00:40;;;;;;;5.85;0.70;;;;;;;;;;5039688;28;20034;-67
2024/01/22 11:03:08;;;;;;;6.05;1.00;;;;;;;;;;5044058;28;20197;-67
2024/01/22 11:05:34;;;;;;;3.55;1.00;;;;;;;;;;5039609;28;20036;-67
2024/01/22 11:07:59;;;;;;;4.35;0.85;;;;;;;;;;5045255;28;20136;-67
2024/01/22 11:10:25;;;;;;;2.80;1.08;;;;;;;;;;5045160;28;20977;-67
2024/01/22 11:12:52;;;;;;;3.08;0.90;;;;;;;;;;5044279;28;20935;-68
2024/01/22 11:15:17;;;;;;;5.20;1.40;;;;;;;;;;5049362;28;20055;-67
2024/01/22 11:17:43;;;;;;;4.88;1.13;;;;;;;;;;5047659;28;20420;-68
2024/01/22 11:20:19;;;;;;;2.45;0.82;;;;;;;;;;5049255;28;20039;-67
2024/01/22 11:23:17;;;;;;;6.70;0.98;;;;;;;;;;5046462;28;20856;-67
2024/01/22 11:25:44;;;;;;;3.50;0.90;;;;;;;;;;5001201;28;20946;-67
2024/01/22 11:28:10;;;;;;;5.85;1.27;;;;;;;;;;5048038;28;20046;-67
2024/01/22 11:30:39;;;;;;;3.08;0.77;;;;;;;;;;5046366;28;20031;-66
2024/01/22 11:33:22;;;;;;;4.68;0.90;;;;;;;;;;5046911;28;20027;-67
2024/01/22 11:35:48;;;;;;;3.53;1.15;;;;;;;;;;5040812;28;20047;-67
2024/01/22 11:38:13;;;;;;;3.45;1.02;;;;;;;;;;5045466;28;20009;-66
2024/01/22 11:40:52;;;;;;;9.25;1.80;;;;;;;;;;5046350;28;20024;-66
2024/01/22 11:43:19;;;;;;;5.55;1.45;;;;;;;;;;5046927;28;20038;-67
2024/01/22 11:45:44;;;;;;;4.22;1.30;;;;;;;;;;5044085;28;20877;-66
2024/01/22 11:48:17;;;;;;;4.90;1.42;;;;;;;;;;5047819;28;20022;-67
2024/01/22 11:50:43;;;;;;;11.52;1.67;;;;;;;;;;5045054;28;20036;-66
2024/01/22 11:53:08;;;;;;;10.70;1.92;;;;;;;;;;5045567;28;20900;-70
2024/01/22 11:55:33;;;;;;;5.35;2.05;;;;;;;;;;5048323;28;20024;-73
2024/01/22 11:57:59;;;;;;;9.50;1.63;;;;;;;;;;5046683;28;20020;-66
2024/01/22 12:00:24;;;;;;;7.03;1.58;;;;;;;;;;5061338;28;20081;-66
2024/01/22 12:02:56;;;;;;;12.43;2.45;;;;;;;;;;5090924;28;20016;-66
2024/01/22 12:05:22;;;;;;;8.50;2.47;;;;;;;;;;5057774;28;20028;-67
2024/01/22 12:07:48;;;;;;;9.63;2.10;;;;;;;;;;5047339;28;20145;-66
2024/01/22 12:10:24;;;;;;;8.73;2.22;;;;;;;;;;5047301;28;20882;-66
2024/01/22 12:12:56;;;;;;;5.72;1.85;;;;;;;;;;5045458;28;20052;-65
2024/01/22 12:15:23;;;;;;;11.27;1.95;;;;;;;;;;5047767;28;20043;-65
2024/01/22 12:17:49;;;;;;;8.63;2.40;;;;;;;;;;5046556;28;20027;-66
2024/01/22 12:20:14;;;;;;;7.45;2.30;;;;;;;;;;5029120;28;20016;-71
2024/01/22 12:22:40;;;;;;;9.30;2.10;;;;;;;;;;5050248;28;20028;-65
2024/01/22 12:25:09;;;;;;;7.22;1.90;;;;;;;;;;5069492;28;20086;-65
2024/01/22 12:27:35;;;;;;;9.95;2.80;;;;;;;;;;5080474;28;20024;-67
2024/01/22 12:30:03;;;;;;;9.10;2.50;;;;;;;;;;5058783;28;20854;-64
2024/01/22 12:32:28;;;;;;;7.10;2.35;;;;;;;;;;5043981;28;20032;-66
2024/01/22 12:34:59;;;;;;;14.10;2.65;;;;;;;;;;5045176;28;20131;-66
2024/01/22 12:37:28;;;;;;;9.43;2.00;;;;;;;;;;5046582;28;20405;-66
2024/01/22 12:40:03;;;;;;;8.35;2.08;;;;;;;;;;5045956;28;20113;-65
2024/01/22 12:42:29;;;;;;;12.32;2.60;;;;;;;;;;5043598;28;20058;-65
2024/01/22 12:44:55;;;;;;;11.77;2.83;;;;;;;;;;5045873;28;20024;-66
2024/01/22 12:47:20;;;;;;;5.22;2.17;;;;;;;;;;5044631;28;20899;-66
2024/01/22 12:49:45;;;;;;;13.70;2.60;;;;;;;;;;5043500;28;20090;-66
2024/01/22 12:52:11;;;;;;;7.70;2.90;;;;;;;;;;5044214;28;21615;-66
2024/01/22 12:54:36;;;;;;;14.35;2.72;;;;;;;;;;5043050;28;21075;-67
2024/01/22 12:57:01;;;;;;;11.53;2.37;;;;;;;;;;5042624;28;20916;-67
2024/01/22 12:59:26;;;;;;;9.87;2.67;;;;;;;;;;5041834;28;21084;-67
2024/01/22 13:01:51;;;;;;;11.43;3.10;;;;;;;;;;5044787;28;21233;-65
2024/01/22 13:04:17;;;;;;;7.20;2.20;;;;;;;;;;5045856;28;21175;-66
2024/01/22 13:06:42;;;;;;;10.77;2.63;;;;;;;;;;5044296;28;21047;-67
2024/01/22 13:09:07;;;;;;;11.52;3.50;;;;;;;;;;5045839;28;20127;-66
2024/01/22 13:11:32;;;;;;;7.77;2.67;;;;;;;;;;5045471;28;20070;-66
2024/01/22 13:13:58;;;;;;;8.77;2.83;;;;;;;;;;5039901;28;21149;-66
2024/01/22 13:16:23;;;;;;;12.63;2.27;;;;;;;;;;5042902;28;20016;-67
2024/01/22 13:18:48;;;;;;;7.37;2.43;;;;;;;;;;5045526;28;20270;-66
2024/01/22 13:21:15;;;;;;;9.00;2.45;;;;;;;;;;5037185;28;20302;-66
2024/01/22 13:23:40;;;;;;;7.10;2.25;;;;;;;;;;5045467;28;20033;-66
2024/01/22 13:26:08;;;;;;;12.95;2.90;;;;;;;;;;5043764;28;20906;-67
2024/01/22 13:28:35;;;;;;;7.95;2.22;;;;;;;;;;5045459;28;20020;-66
2024/01/22 13:31:01;;;;;;;12.10;2.67;;;;;;;;;;5044730;28;20256;-67
2024/01/22 13:33:26;;;;;;;11.63;2.58;;;;;;;;;;5045244;28;20874;-66
2024/01/22 13:35:51;;;;;;;11.68;3.15;;;;;;;;;;5044285;28;20085;-67
2024/01/22 13:38:16;;;;;;;6.37;2.40;;;;;;;;;;5043178;28;20028;-66
2024/01/22 13:40:41;;;;;;;10.47;2.60;;;;;;;;;;5034352;28;20282;-66
2024/01/22 13:43:07;;;;;;;11.45;2.60;;;;;;;;;;5025880;28;20282;-65
2024/01/22 13:45:32;;;;;;;11.90;2.67;;;;;;;;;;5045734;28;21015;-66
2024/01/22 13:47:57;;;;;;;13.45;3.53;;;;;;;;;;5043998;28;20037;-67
2024/01/22 13:50:22;;;;;;;11.23;3.30;;;;;;;;;;5044825;28;20023;-66
2024/01/22 13:52:48;;;;;;;10.13;3.30;;;;;;;;;;5041175;28;20020;-66
2024/01/22 13:55:15;;;;;;;12.05;3.35;;;;;;;;;;5045500;28;20031;-66
2024/01/22 13:57:41;;;;;;;15.20;3.83;;;;;;;;;;5044692;28;20086;-66
2024/01/22 14:00:06;;;;;;;12.65;3.55;;;;;;;;;;5044482;28;20077;-66
2024/01/22 14:02:32;;;;;;;16.15;3.75;;;;;;;;;;5043869;28;20878;-66
2024/01/22 14:04:57;;;;;;;10.35;2.92;;;;;;;;;;5043417;28;20020;-66
2024/01/22 14:07:22;;;;;;;8.32;2.65;;;;;;;;;;5032172;28;20939;-66
2024/01/22 14:09:47;;;;;;;14.53;2.90;;;;;;;;;;5038157;28;20024;-67
2024/01/22 14:12:13;;;;;;;11.20;3.00;;;;;;;;;;5044681;28;20278;-66
2024/01/22 14:14:38;;;;;;;9.77;2.70;;;;;;;;;;5041152;28;20306;-66
2024/01/22 14:17:05;;;;;;;9.77;2.78;;;;;;;;;;5042968;28;20381;-67
2024/01/22 14:19:32;;;;;;;12.77;2.45;;;;;;;;;;5044987;28;20925;-66
2024/01/22 14:21:57;;;;;;;13.27;3.08;;;;;;;;;;5043335;28;20028;-66
2024/01/22 14:24:22;;;;;;;15.70;3.90;;;;;;;;;;5042794;28;20850;-66
2024/01/22 14:26:49;;;;;;;11.63;2.70;;;;;;;;;;5043492;28;20177;-66
2024/01/22 14:29:14;;;;;;;12.50;2.90;;;;;;;;;;5043567;28;20263;-66
2024/01/22 14:31:39;;;;;;;17.48;2.65;;;;;;;;;;5044198;28;20839;-66
2024/01/22 14:34:04;;;;;;;11.37;2.53;;;;;;;;;;5043932;28;20097;-67